createdAt,value
2022-12-15T00:00:25.321Z,26.23
2022-12-15T00:03:11.601Z,28.35
2022-12-15T00:05:59.029Z,31.60
2022-12-15T00:08:45.101Z,29.42
2022-12-15T00:11:31.423Z,26.20
2022-12-15T00:14:17.751Z,24.80
2022-12-15T00:17:04.260Z,30.07
2022-12-15T00:19:50.339Z,29.53
2022-12-15T00:22:36.544Z,22.83
2022-12-15T00:25:22.847Z,29.63
2022-12-15T00:28:09.399Z,19.90
2022-12-15T00:31:02.103Z,26.50
2022-12-15T00:33:49.188Z,40.23
2022-12-15T00:36:35.470Z,37.10
2022-12-15T00:39:04.404Z,37.63
2022-12-15T00:41:32.180Z,36.57
2022-12-15T00:44:00.126Z,35.55
2022-12-15T00:49:33.473Z,34.25
2022-12-15T00:52:19.714Z,38.43
2022-12-15T00:55:05.952Z,42.77
2022-12-15T00:57:52.418Z,34.60
2022-12-15T01:00:40.197Z,29.93
2022-12-15T01:03:40.178Z,27.17
2022-12-15T01:06:33.432Z,30.33
2022-12-15T01:09:20.248Z,34.03
2022-12-15T01:12:06.568Z,29.42
2022-12-15T01:14:53.883Z,27.70
2022-12-15T01:17:40.401Z,31.77
2022-12-15T01:20:21.687Z,28.23
2022-12-15T01:22:54.627Z,32.63
2022-12-15T01:25:25.865Z,30.00
2022-12-15T01:27:54.910Z,29.00
2022-12-15T01:30:25.352Z,28.20
2022-12-15T01:32:53.812Z,27.60
2022-12-15T01:35:22.180Z,28.17
2022-12-15T01:37:50.382Z,22.00
2022-12-15T01:40:38.791Z,28.73
2022-12-15T01:43:16.258Z,21.50
2022-12-15T01:46:11.860Z,24.13
2022-12-15T01:48:48.628Z,25.97
2022-12-15T01:51:40.347Z,29.67
2022-12-15T01:54:23.512Z,30.90
2022-12-15T01:56:55.618Z,24.20
2022-12-15T01:59:30.021Z,23.67
2022-12-15T02:01:57.928Z,27.17
2022-12-15T02:04:25.938Z,31.43
2022-12-15T02:12:11.906Z,30.87
2022-12-15T02:15:04.265Z,28.97
2022-12-15T02:18:05.191Z,26.03
2022-12-15T02:20:53.560Z,29.50
2022-12-15T02:23:36.401Z,25.87
2022-12-15T02:26:25.831Z,27.97
2022-12-15T02:29:10.989Z,28.13
2022-12-15T02:31:50.065Z,24.97
2022-12-15T02:34:43.347Z,27.87
2022-12-15T02:37:20.828Z,30.10
2022-12-15T02:39:48.796Z,28.42
2022-12-15T02:42:17.259Z,23.70
2022-12-15T02:44:50.270Z,17.42
2022-12-15T02:47:22.326Z,28.50
2022-12-15T02:50:43.270Z,22.00
2022-12-15T02:53:21.362Z,26.80
2022-12-15T02:56:33.944Z,28.83
2022-12-15T02:59:25.763Z,26.30
2022-12-15T03:02:03.161Z,30.33
2022-12-15T03:04:33.925Z,24.35
2022-12-15T03:07:05.669Z,28.90
2022-12-15T03:09:34.542Z,29.87
2022-12-15T03:12:02.262Z,23.57
2022-12-15T03:16:58.084Z,30.90
2022-12-15T03:19:27.354Z,31.10
2022-12-15T03:24:24.042Z,24.38
2022-12-15T03:26:52.064Z,26.67
2022-12-15T03:29:20.392Z,27.37
2022-12-15T03:31:49.948Z,25.33
2022-12-15T03:34:18.191Z,29.47
2022-12-15T03:36:46.245Z,29.67
2022-12-15T03:39:14.229Z,28.00
2022-12-15T03:41:42.366Z,33.53
2022-12-15T03:44:10.163Z,25.83
2022-12-15T03:46:39.261Z,23.13
2022-12-15T03:49:07.285Z,26.03
2022-12-15T03:51:35.338Z,26.33
2022-12-15T03:54:03.054Z,26.23
2022-12-15T03:56:30.835Z,29.35
2022-12-15T03:58:58.534Z,25.67
2022-12-15T04:01:31.664Z,21.25
2022-12-15T04:04:01.664Z,24.63
2022-12-15T04:06:30.893Z,26.30
2022-12-15T04:08:58.604Z,24.90
2022-12-15T04:11:26.489Z,31.27
2022-12-15T04:13:54.239Z,23.23
2022-12-15T04:19:09.584Z,24.77
2022-12-15T04:21:37.204Z,23.80
2022-12-15T04:24:24.949Z,28.10
2022-12-15T04:27:12.336Z,24.83
2022-12-15T04:29:58.416Z,31.20
2022-12-15T04:32:44.701Z,24.93
2022-12-15T04:35:37.218Z,25.93
2022-12-15T04:38:23.393Z,36.88
2022-12-15T04:41:10.767Z,29.60
2022-12-15T04:43:58.637Z,27.30
2022-12-15T04:46:45.209Z,23.38
2022-12-15T04:49:31.746Z,28.45
2022-12-15T04:52:17.874Z,20.13
2022-12-15T04:55:04.504Z,28.67
2022-12-15T04:57:50.650Z,34.90
2022-12-15T05:00:37.797Z,26.65
2022-12-15T05:03:25.751Z,27.57
2022-12-15T05:06:12.442Z,27.20
2022-12-15T05:08:58.471Z,27.55
2022-12-15T05:11:44.628Z,25.53
2022-12-15T05:14:31.546Z,29.97
2022-12-15T05:17:17.770Z,25.73
2022-12-15T05:20:04.435Z,24.23
2022-12-15T05:22:51.383Z,23.90
2022-12-15T05:25:38.585Z,26.20
2022-12-15T05:28:25.952Z,24.63
2022-12-15T05:31:12.254Z,26.48
2022-12-15T05:33:41.824Z,31.10
2022-12-15T05:36:09.712Z,26.33
2022-12-15T05:41:05.110Z,21.17
2022-12-15T05:43:33.517Z,22.20
2022-12-15T05:46:05.079Z,29.87
2022-12-15T05:48:32.849Z,23.90
2022-12-15T05:51:10.406Z,25.80
2022-12-15T05:56:12.517Z,26.67
2022-12-15T05:58:45.083Z,23.77
2022-12-15T06:01:16.558Z,24.40
2022-12-15T06:03:44.736Z,33.50
2022-12-15T06:06:13.452Z,26.13
2022-12-15T06:08:42.931Z,35.00
2022-12-15T06:11:13.345Z,29.00
2022-12-15T06:13:41.583Z,27.43
2022-12-15T06:16:15.574Z,26.03
2022-12-15T06:18:50.172Z,27.17
2022-12-15T06:21:20.251Z,32.57
2022-12-15T06:23:48.216Z,25.47
2022-12-15T06:26:23.283Z,20.30
2022-12-15T06:28:51.922Z,30.40
2022-12-15T06:31:25.546Z,27.40
2022-12-15T06:34:01.070Z,28.27
2022-12-15T06:36:31.057Z,23.60
2022-12-15T06:39:01.023Z,27.23
2022-12-15T06:41:32.766Z,23.00
2022-12-15T06:44:01.250Z,22.23
2022-12-15T06:46:31.275Z,23.87
2022-12-15T06:48:59.673Z,26.27
2022-12-15T06:51:28.378Z,22.07
2022-12-15T06:53:56.702Z,23.00
2022-12-15T06:56:34.830Z,26.30
2022-12-15T06:59:05.185Z,27.93
2022-12-15T07:01:33.906Z,29.80
2022-12-15T07:04:04.520Z,29.80
2022-12-15T07:06:36.406Z,28.23
2022-12-15T07:09:07.586Z,28.57
2022-12-15T07:11:35.421Z,30.57
2022-12-15T07:16:31.266Z,25.77
2022-12-15T07:18:59.023Z,26.63
2022-12-15T07:21:26.739Z,22.80
2022-12-15T07:26:27.141Z,31.13
2022-12-15T07:28:56.335Z,29.07
2022-12-15T07:31:25.778Z,25.60
2022-12-15T07:33:56.161Z,26.90
2022-12-15T07:36:23.979Z,29.67
2022-12-15T07:41:20.741Z,32.97
2022-12-15T07:43:48.874Z,26.17
2022-12-15T07:46:18.430Z,28.90
2022-12-15T07:48:50.344Z,24.83
2022-12-15T07:51:21.938Z,26.00
2022-12-15T07:53:51.159Z,34.10
2022-12-15T07:56:20.838Z,23.57
2022-12-15T07:58:50.782Z,31.13
2022-12-15T08:01:18.720Z,29.77
2022-12-15T08:03:46.750Z,27.93
2022-12-15T08:06:15.480Z,26.43
2022-12-15T08:08:50.732Z,25.40
2022-12-15T08:11:22.680Z,33.53
2022-12-15T08:14:10.527Z,27.60
2022-12-15T08:16:40.295Z,28.13
2022-12-15T08:19:13.914Z,28.87
2022-12-15T08:21:43.075Z,34.13
2022-12-15T08:24:11.103Z,33.77
2022-12-15T08:26:40.879Z,39.13
2022-12-15T08:29:48.990Z,34.47
2022-12-15T08:32:00.477Z,35.10
2022-12-15T08:34:28.169Z,36.03
2022-12-15T08:36:55.860Z,37.95
2022-12-15T08:39:23.802Z,39.40
2022-12-15T08:41:51.530Z,41.30
2022-12-15T08:44:19.152Z,27.85
2022-12-15T08:46:47.092Z,40.95
2022-12-15T08:51:50.673Z,34.70
2022-12-15T08:54:19.677Z,47.67
2022-12-15T08:56:48.463Z,35.63
2022-12-15T08:59:16.614Z,31.33
2022-12-15T09:01:44.417Z,35.63
2022-12-15T09:04:12.266Z,61.30
2022-12-15T09:06:40.091Z,66.80
2022-12-15T09:09:10.462Z,61.65
2022-12-15T09:11:38.198Z,61.33
2022-12-15T09:14:07.137Z,61.28
2022-12-15T09:16:35.141Z,58.93
2022-12-15T09:21:32.665Z,60.75
2022-12-15T09:24:02.275Z,62.70
2022-12-15T09:26:32.928Z,54.17
2022-12-15T09:29:02.195Z,51.67
2022-12-15T09:31:32.870Z,48.67
2022-12-15T09:34:01.489Z,58.53
2022-12-15T09:36:32.558Z,52.53
2022-12-15T09:39:02.451Z,62.40
2022-12-15T09:41:35.323Z,53.53
2022-12-15T09:44:11.094Z,55.60
2022-12-15T09:47:05.981Z,60.30
2022-12-15T09:49:57.254Z,59.23
2022-12-15T09:52:36.058Z,54.33
2022-12-15T09:55:22.316Z,52.60
2022-12-15T09:58:10.646Z,50.10
2022-12-15T10:00:52.929Z,58.73
2022-12-15T10:03:34.057Z,57.70
2022-12-15T10:06:22.225Z,53.87
2022-12-15T10:08:54.319Z,58.87
2022-12-15T10:11:39.180Z,54.60
2022-12-15T10:14:32.802Z,54.67
2022-12-15T10:17:07.923Z,51.90
2022-12-15T10:20:00.933Z,49.53
2022-12-15T10:22:38.113Z,33.10
2022-12-15T10:25:19.708Z,50.33
2022-12-15T10:28:09.959Z,53.80
2022-12-15T10:30:59.578Z,51.73
2022-12-15T10:33:40.217Z,38.53
2022-12-15T10:36:16.462Z,43.03
2022-12-15T10:38:50.321Z,43.33
2022-12-15T10:41:26.369Z,46.87
2022-12-15T10:43:55.313Z,42.70
2022-12-15T10:46:29.171Z,19.50
2022-12-15T10:49:07.818Z,18.43
2022-12-15T10:51:43.124Z,5.37
2022-12-15T10:54:14.856Z,14.93
2022-12-15T10:56:50.242Z,10.30
2022-12-15T10:59:26.357Z,19.27
2022-12-15T11:01:55.151Z,21.13
2022-12-15T11:04:32.545Z,19.93
2022-12-15T11:07:03.442Z,20.88
2022-12-15T11:09:37.847Z,8.40
2022-12-15T11:12:39.468Z,15.03
2022-12-15T11:15:23.234Z,10.70
2022-12-15T11:18:11.679Z,16.60
2022-12-15T11:21:01.549Z,11.40
2022-12-15T11:23:52.222Z,14.03
2022-12-15T11:26:48.873Z,11.83
2022-12-15T11:29:41.853Z,12.73
2022-12-15T11:32:13.192Z,12.50
2022-12-15T11:34:46.318Z,4.80
2022-12-15T11:37:34.212Z,5.90
2022-12-15T11:40:30.921Z,12.70
2022-12-15T11:43:11.265Z,13.77
2022-12-15T11:46:17.460Z,8.83
2022-12-15T11:49:13.144Z,14.77
2022-12-15T11:52:03.129Z,10.80
2022-12-15T11:54:53.453Z,12.63
2022-12-15T11:57:27.217Z,5.13
2022-12-15T12:00:20.116Z,5.20
2022-12-15T12:03:03.632Z,14.87
2022-12-15T12:05:56.374Z,11.10
2022-12-15T12:08:33.714Z,8.73
2022-12-15T12:11:12.951Z,7.03
2022-12-15T12:14:14.575Z,9.10
2022-12-15T12:17:03.790Z,7.07
2022-12-15T12:19:59.600Z,8.07
2022-12-15T12:22:36.485Z,9.77
2022-12-15T12:25:10.173Z,6.40
2022-12-15T12:27:48.797Z,9.50
2022-12-15T12:30:21.666Z,4.57
2022-12-15T12:32:50.538Z,4.73
2022-12-15T12:35:38.345Z,7.27
2022-12-15T12:38:09.836Z,3.17
2022-12-15T12:40:40.576Z,4.60
2022-12-15T12:43:14.032Z,7.60
2022-12-15T12:45:50.247Z,7.67
2022-12-15T12:48:33.877Z,8.03
2022-12-15T12:51:24.580Z,4.97
2022-12-15T12:53:53.144Z,10.63
2022-12-15T12:56:33.029Z,5.97
2022-12-15T12:59:01.235Z,7.10
2022-12-15T13:04:07.739Z,4.50
2022-12-15T13:06:35.626Z,6.10
2022-12-15T13:09:21.435Z,4.95
2022-12-15T13:11:53.099Z,10.33
2022-12-15T13:14:31.360Z,5.33
2022-12-15T13:17:25.966Z,3.63
2022-12-15T13:20:03.167Z,4.07
2022-12-15T13:22:38.038Z,6.53
2022-12-15T13:25:27.650Z,4.50
2022-12-15T13:28:00.653Z,3.47
2022-12-15T13:30:28.598Z,3.63
2022-12-15T13:33:16.591Z,2.78
2022-12-15T13:35:44.527Z,5.83
2022-12-15T13:38:20.879Z,3.35
2022-12-15T13:40:50.424Z,7.67
2022-12-15T13:43:27.648Z,2.97
2022-12-15T13:46:11.832Z,11.25
2022-12-15T13:48:54.279Z,7.13
2022-12-15T13:51:35.317Z,8.03
2022-12-15T13:54:15.555Z,9.43
2022-12-15T13:57:01.262Z,8.03
2022-12-15T13:59:43.261Z,5.30
2022-12-15T14:02:32.126Z,7.67
2022-12-15T14:05:23.131Z,10.87
2022-12-15T14:07:55.019Z,9.50
2022-12-15T14:10:37.626Z,12.70
2022-12-15T14:13:17.506Z,6.67
2022-12-15T14:15:58.869Z,10.07
2022-12-15T14:18:36.630Z,7.90
2022-12-15T14:21:23.020Z,10.60
2022-12-15T14:26:38.410Z,13.27
2022-12-15T14:29:06.719Z,9.05
2022-12-15T14:31:37.769Z,9.47
2022-12-15T14:34:21.905Z,11.47
2022-12-15T14:36:50.886Z,6.53
2022-12-15T14:39:43.597Z,9.03
2022-12-15T14:42:27.975Z,8.07
2022-12-15T14:44:58.383Z,10.77
2022-12-15T14:47:30.978Z,8.60
2022-12-15T14:50:01.499Z,5.70
2022-12-15T14:52:37.130Z,8.87
2022-12-15T14:55:37.035Z,10.03
2022-12-15T14:58:23.751Z,16.77
2022-12-15T15:00:54.425Z,7.07
2022-12-15T15:03:27.659Z,18.67
2022-12-15T15:06:00.132Z,14.17
2022-12-15T15:08:35.703Z,12.90
2022-12-15T15:11:18.459Z,8.60
2022-12-15T15:13:47.118Z,17.00
2022-12-15T15:16:18.329Z,18.30
2022-12-15T15:18:51.430Z,18.30
2022-12-15T15:21:23.964Z,18.07
2022-12-15T15:24:00.266Z,18.37
2022-12-15T15:26:29.019Z,15.10
2022-12-15T15:28:57.467Z,12.80
2022-12-15T15:31:26.084Z,8.00
2022-12-15T15:33:57.219Z,15.40
2022-12-15T15:38:46.997Z,7.40
2022-12-15T15:41:19.962Z,11.20
2022-12-15T15:43:49.380Z,15.57
2022-12-15T15:46:29.463Z,18.90
2022-12-15T15:49:04.082Z,17.27
2022-12-15T15:51:33.184Z,17.20
2022-12-15T15:54:05.702Z,13.93
2022-12-15T15:56:33.601Z,13.50
2022-12-15T15:59:11.786Z,9.35
2022-12-15T16:01:39.919Z,6.80
2022-12-15T16:04:08.063Z,8.00
2022-12-15T16:06:36.422Z,15.47
2022-12-15T16:09:07.230Z,15.50
2022-12-15T16:11:35.398Z,12.63
2022-12-15T16:14:03.915Z,10.57
2022-12-15T16:16:33.293Z,20.87
2022-12-15T16:19:00.861Z,20.77
2022-12-15T16:21:28.875Z,17.83
2022-12-15T16:23:58.183Z,23.10
2022-12-15T16:26:37.658Z,15.50
2022-12-15T16:29:16.726Z,20.23
2022-12-15T16:31:45.869Z,22.13
2022-12-15T16:34:16.750Z,13.13
2022-12-15T16:36:45.585Z,14.83
2022-12-15T16:39:29.172Z,19.93
2022-12-15T16:41:57.884Z,18.77
2022-12-15T16:44:27.200Z,8.27
2022-12-15T16:46:55.428Z,22.63
2022-12-15T16:49:23.094Z,20.93
2022-12-15T16:51:53.344Z,22.13
2022-12-15T16:54:25.355Z,31.33
2022-12-15T16:56:58.076Z,31.97
2022-12-15T16:59:34.290Z,26.20
2022-12-15T17:02:28.567Z,24.17
2022-12-15T17:04:56.712Z,23.03
2022-12-15T17:07:27.752Z,30.98
2022-12-15T17:09:56.222Z,25.53
2022-12-15T17:12:24.046Z,28.37
2022-12-15T17:14:51.968Z,25.15
2022-12-15T17:17:19.993Z,26.95
2022-12-15T17:22:37.472Z,33.83
2022-12-15T17:25:05.624Z,28.48
2022-12-15T17:27:33.480Z,32.60
2022-12-15T17:30:01.980Z,27.25
2022-12-15T17:32:29.684Z,26.90
2022-12-15T17:34:57.420Z,25.60
2022-12-15T17:37:28.021Z,33.25
2022-12-15T17:39:58.301Z,28.03
2022-12-15T17:42:26.098Z,19.90
2022-12-15T17:44:54.138Z,28.10
2022-12-15T17:49:53.901Z,30.33
2022-12-15T17:52:27.443Z,28.70
2022-12-15T17:54:56.058Z,33.10
2022-12-15T17:57:25.657Z,35.83
2022-12-15T17:59:53.572Z,33.17
2022-12-15T18:02:21.310Z,32.28
2022-12-15T18:04:49.220Z,35.60
2022-12-15T18:07:22.653Z,34.78
2022-12-15T18:09:52.488Z,42.77
2022-12-15T18:12:22.799Z,35.70
2022-12-15T18:14:50.811Z,34.87
2022-12-15T18:17:18.568Z,37.78
2022-12-15T18:19:46.606Z,33.67
2022-12-15T18:22:22.468Z,39.13
2022-12-15T18:24:52.675Z,32.40
2022-12-15T18:27:25.162Z,35.87
2022-12-15T18:29:53.648Z,36.37
2022-12-15T18:32:25.492Z,36.40
2022-12-15T18:34:54.038Z,34.10
2022-12-15T18:37:25.202Z,37.70
2022-12-15T18:39:53.364Z,32.03
2022-12-15T18:42:23.796Z,30.95
2022-12-15T18:44:52.978Z,31.90
2022-12-15T18:47:23.561Z,34.17
2022-12-15T18:49:51.603Z,30.07
2022-12-15T18:52:22.454Z,32.35
2022-12-15T18:54:51.860Z,34.30
2022-12-15T18:57:28.371Z,36.00
2022-12-15T19:00:02.023Z,40.20
2022-12-15T19:02:30.464Z,38.57
2022-12-15T19:04:58.484Z,34.10
2022-12-15T19:07:26.132Z,34.03
2022-12-15T19:09:53.993Z,34.58
2022-12-15T19:12:22.019Z,33.65
2022-12-15T19:17:40.374Z,61.77
2022-12-15T19:20:34.970Z,60.27
2022-12-15T19:23:02.761Z,60.63
2022-12-15T19:25:31.902Z,56.05
2022-12-15T19:28:00.980Z,54.70
2022-12-15T19:30:31.266Z,55.77
2022-12-15T19:32:59.171Z,48.57
2022-12-15T19:35:28.435Z,45.03
2022-12-15T19:38:00.744Z,52.17
2022-12-15T19:40:31.418Z,43.43
2022-12-15T19:43:00.571Z,45.73
2022-12-15T19:45:31.910Z,44.30
2022-12-15T19:48:00.805Z,54.50
2022-12-15T19:50:38.887Z,49.00
2022-12-15T19:53:30.172Z,54.43
2022-12-15T19:56:01.403Z,56.67
2022-12-15T19:58:35.258Z,52.13
2022-12-15T20:01:07.197Z,50.07
2022-12-15T20:03:36.618Z,55.90
2022-12-15T20:06:14.403Z,54.33
2022-12-15T20:08:45.860Z,49.00
2022-12-15T20:11:21.399Z,47.60
2022-12-15T20:13:50.585Z,51.43
2022-12-15T20:16:19.447Z,41.20
2022-12-15T20:18:54.662Z,48.63
2022-12-15T20:21:26.689Z,47.83
2022-12-15T20:24:27.409Z,51.37
2022-12-15T20:26:56.472Z,53.57
2022-12-15T20:31:54.415Z,58.70
2022-12-15T20:34:23.451Z,58.70
2022-12-15T20:36:51.950Z,49.60
2022-12-15T20:39:29.449Z,54.60
2022-12-15T20:41:58.302Z,41.27
2022-12-15T20:44:26.011Z,45.73
2022-12-15T20:46:54.850Z,56.00
2022-12-15T20:49:23.193Z,49.07
2022-12-15T20:51:52.026Z,50.77
2022-12-15T20:54:22.588Z,46.50
2022-12-15T20:56:50.933Z,48.43
2022-12-15T20:59:19.108Z,52.93
2022-12-15T21:01:47.220Z,77.97
2022-12-15T21:04:27.895Z,60.90
2022-12-15T21:06:56.269Z,66.53
2022-12-15T21:09:24.582Z,69.87
2022-12-15T21:11:54.520Z,64.30
2022-12-15T21:14:23.667Z,58.57
2022-12-15T21:16:51.776Z,55.37
2022-12-15T21:21:54.891Z,51.67
2022-12-15T21:24:25.484Z,51.43
2022-12-15T21:26:53.813Z,50.93
2022-12-15T21:29:27.928Z,48.97
2022-12-15T21:31:55.593Z,56.60
2022-12-15T21:34:23.764Z,55.30
2022-12-15T21:36:54.829Z,52.03
2022-12-15T21:39:29.810Z,59.73
2022-12-15T21:42:08.474Z,50.03
2022-12-15T21:44:36.107Z,46.00
2022-12-15T21:47:22.808Z,43.95
2022-12-15T21:49:50.675Z,52.08
2022-12-15T21:52:19.715Z,53.90
2022-12-15T21:54:47.724Z,46.77
2022-12-15T21:59:43.043Z,47.25
2022-12-15T22:02:23.041Z,48.80
2022-12-15T22:04:51.962Z,58.83
2022-12-15T22:07:19.821Z,59.07
2022-12-15T22:09:47.838Z,54.55
2022-12-15T22:14:47.955Z,52.27
2022-12-15T22:19:47.809Z,50.23
2022-12-15T22:22:16.610Z,48.22
2022-12-15T22:24:44.927Z,48.37
2022-12-15T22:27:20.919Z,48.20
2022-12-15T22:29:52.010Z,51.93
2022-12-15T22:32:19.574Z,44.63
2022-12-15T22:34:47.531Z,55.13
2022-12-15T22:37:15.813Z,48.80
2022-12-15T22:39:43.575Z,52.30
2022-12-15T22:42:16.340Z,64.60
2022-12-15T22:44:45.043Z,56.63
2022-12-15T22:47:12.684Z,50.80
2022-12-15T22:49:41.213Z,58.67
2022-12-15T22:52:22.793Z,54.07
2022-12-15T22:54:50.846Z,45.53
2022-12-15T22:57:22.754Z,57.20
2022-12-15T23:00:03.531Z,53.53
2022-12-15T23:02:36.124Z,52.63
2022-12-15T23:05:05.719Z,52.87
2022-12-15T23:07:34.480Z,52.13
2022-12-15T23:10:22.194Z,55.37
2022-12-15T23:12:54.636Z,54.63
2022-12-15T23:15:45.659Z,53.73
2022-12-15T23:18:13.724Z,55.50
2022-12-15T23:25:38.100Z,49.80
2022-12-15T23:28:05.805Z,57.00
2022-12-15T23:30:33.629Z,59.80
2022-12-15T23:33:01.173Z,57.70
2022-12-15T23:35:28.739Z,63.10
2022-12-15T23:37:57.874Z,48.40
2022-12-15T23:40:25.497Z,57.87
2022-12-15T23:42:53.795Z,49.15
2022-12-15T23:45:21.605Z,48.33
2022-12-15T23:47:49.219Z,49.10
2022-12-15T23:50:17.207Z,58.95
2022-12-15T23:55:12.478Z,54.85
2022-12-15T23:57:40.150Z,48.53
